Time;durP1;ratioP1;P1;durP2;ratioP2;P2;SDS_P1;SDS_P2;PMS_P1;PMS_P2;Temp;Humidity;BMP_temperature;BMP_pressure;BME280_temperature;BME280_humidity;BME280_pressure;Samples;Min_cycle;Max_cycle;Signal;HPM_P1;HPM_P2
2023/03/09 00:02:18;;;;;;;1.55;0.75;;;;;;;;;;5059807;28;20040;-72
2023/03/09 00:04:43;;;;;;;2.72;1.52;;;;;;;;;;5065019;28;20079;-70
2023/03/09 00:07:09;;;;;;;0.80;0.63;;;;;;;;;;5069202;28;20037;-71
2023/03/09 00:09:34;;;;;;;0.47;0.47;;;;;;;;;;5069023;28;20404;-69
2023/03/09 00:12:00;;;;;;;0.10;0.10;;;;;;;;;;5066476;28;20110;-68
2023/03/09 00:14:25;;;;;;;4.88;2.15;;;;;;;;;;5031241;28;20083;-68
2023/03/09 00:16:51;;;;;;;0.75;0.75;;;;;;;;;;5051595;28;20062;-68
2023/03/09 00:19:20;;;;;;;0.10;0.10;;;;;;;;;;5051822;28;20029;-71
2023/03/09 00:21:49;;;;;;;;;;;;;;;;;;5053769;28;20037;-70
2023/03/09 00:24:16;;;;;;;0.10;0.10;;;;;;;;;;5053713;28;19905;-70
2023/03/09 00:26:43;;;;;;;0.50;0.50;;;;;;;;;;5036850;28;20031;-71
2023/03/09 00:29:09;;;;;;;0.10;0.10;;;;;;;;;;5052736;28;20033;-70
2023/03/09 00:31:35;;;;;;;0.38;0.30;;;;;;;;;;5058574;28;20490;-71
2023/03/09 00:34:02;;;;;;;0.10;0.10;;;;;;;;;;5052001;28;20135;-70
2023/03/09 00:36:28;;;;;;;0.45;0.45;;;;;;;;;;5034820;28;20061;-69
2023/03/09 00:38:57;;;;;;;0.40;0.40;;;;;;;;;;5061109;28;20411;-69
2023/03/09 00:41:23;;;;;;;1.00;0.77;;;;;;;;;;5035963;28;20027;-70
2023/03/09 00:43:49;;;;;;;0.10;0.10;;;;;;;;;;5053136;28;20025;-70
2023/03/09 00:46:15;;;;;;;0.40;0.40;;;;;;;;;;5053015;28;20029;-69
2023/03/09 00:48:41;;;;;;;0.10;0.10;;;;;;;;;;5051092;28;20052;-69
2023/03/09 00:51:07;;;;;;;0.32;0.32;;;;;;;;;;5064505;28;20025;-69
2023/03/09 00:53:32;;;;;;;1.17;0.45;;;;;;;;;;5044925;28;20487;-69
2023/03/09 00:56:05;;;;;;;0.17;0.17;;;;;;;;;;5051152;28;20048;-69
2023/03/09 00:58:32;;;;;;;1.27;1.17;;;;;;;;;;5051507;28;20025;-69
2023/03/09 01:00:58;;;;;;;0.20;0.20;;;;;;;;;;5053232;28;20028;-68
2023/03/09 01:03:23;;;;;;;2.08;1.85;;;;;;;;;;5055229;28;20477;-69
2023/03/09 01:05:49;;;;;;;0.10;0.10;;;;;;;;;;5056139;28;20554;-69
2023/03/09 01:08:14;;;;;;;0.10;0.10;;;;;;;;;;5054732;28;20037;-69
2023/03/09 01:10:41;;;;;;;0.10;0.10;;;;;;;;;;5055892;28;20039;-70
2023/03/09 01:13:06;;;;;;;0.10;0.10;;;;;;;;;;5054950;28;20071;-70
2023/03/09 01:15:32;;;;;;;0.10;0.10;;;;;;;;;;5056207;28;20029;-70
2023/03/09 01:17:58;;;;;;;0.10;0.10;;;;;;;;;;5056310;28;20032;-69
2023/03/09 01:20:23;;;;;;;0.57;0.57;;;;;;;;;;5054407;28;20029;-70
2023/03/09 01:22:49;;;;;;;0.10;0.10;;;;;;;;;;5054570;28;20052;-71
2023/03/09 01:25:14;;;;;;;0.10;0.10;;;;;;;;;;5055662;28;20119;-70
2023/03/09 01:27:40;;;;;;;0.10;0.10;;;;;;;;;;5037914;28;20037;-70
2023/03/09 01:30:06;;;;;;;0.30;0.30;;;;;;;;;;5054549;28;20123;-69
2023/03/09 01:32:31;;;;;;;0.10;0.10;;;;;;;;;;5055897;28;20481;-69
2023/03/09 01:34:57;;;;;;;0.75;0.75;;;;;;;;;;5055614;28;20047;-69
2023/03/09 01:37:23;;;;;;;0.45;0.40;;;;;;;;;;5037678;28;20028;-69
2023/03/09 01:39:49;;;;;;;0.17;0.17;;;;;;;;;;5054006;28;20029;-70
2023/03/09 01:42:14;;;;;;;0.20;0.20;;;;;;;;;;5037824;28;20108;-69
2023/03/09 01:44:40;;;;;;;0.10;0.10;;;;;;;;;;5054294;28;20392;-70
2023/03/09 01:47:05;;;;;;;0.52;0.30;;;;;;;;;;5054786;28;20124;-69
2023/03/09 01:49:37;;;;;;;0.35;0.30;;;;;;;;;;5055449;28;20124;-69
2023/03/09 01:52:08;;;;;;;1.35;1.35;;;;;;;;;;5055223;28;20021;-69
2023/03/09 01:54:36;;;;;;;0.10;0.10;;;;;;;;;;5053859;28;20476;-69
2023/03/09 01:57:11;;;;;;;0.20;0.20;;;;;;;;;;5054025;28;20037;-69
2023/03/09 01:59:38;;;;;;;0.88;0.88;;;;;;;;;;5037426;28;20040;-69
2023/03/09 02:02:03;;;;;;;0.38;0.38;;;;;;;;;;5044636;28;20025;-69
2023/03/09 02:04:36;;;;;;;0.28;0.28;;;;;;;;;;5057112;28;20388;-68
2023/03/09 02:07:02;;;;;;;0.10;0.10;;;;;;;;;;5057112;28;20037;-70
2023/03/09 02:09:41;;;;;;;0.60;0.50;;;;;;;;;;5057375;28;20154;-69
2023/03/09 02:12:11;;;;;;;0.57;0.57;;;;;;;;;;5057540;28;20028;-69
2023/03/09 02:14:37;;;;;;;0.10;0.10;;;;;;;;;;5056466;28;20028;-69
2023/03/09 02:17:03;;;;;;;0.10;0.10;;;;;;;;;;5058704;28;20805;-69
2023/03/09 02:19:37;;;;;;;0.52;0.52;;;;;;;;;;5054605;28;20017;-69
2023/03/09 02:22:03;;;;;;;0.10;0.10;;;;;;;;;;5035843;28;20037;-70
2023/03/09 02:24:45;;;;;;;1.30;1.20;;;;;;;;;;5068340;28;20388;-72
2023/03/09 02:27:14;;;;;;;0.20;0.20;;;;;;;;;;5055199;28;20069;-72
2023/03/09 02:29:40;;;;;;;0.20;0.20;;;;;;;;;;5049616;28;20024;-69
2023/03/09 02:32:06;;;;;;;0.30;0.30;;;;;;;;;;5050989;28;20461;-69
2023/03/09 02:34:31;;;;;;;0.68;0.68;;;;;;;;;;5032812;28;20460;-69
2023/03/09 02:36:57;;;;;;;3.72;1.05;;;;;;;;;;5049591;28;20051;-70
2023/03/09 02:39:40;;;;;;;0.88;0.73;;;;;;;;;;5049335;28;20036;-69
2023/03/09 02:42:08;;;;;;;4.32;1.10;;;;;;;;;;5049083;28;20037;-69
2023/03/09 02:44:34;;;;;;;0.20;0.20;;;;;;;;;;5048688;28;20032;-70
2023/03/09 02:47:07;;;;;;;1.27;1.17;;;;;;;;;;5032895;28;20905;-69
2023/03/09 02:49:33;;;;;;;0.47;0.40;;;;;;;;;;5048991;28;20032;-70
2023/03/09 02:51:58;;;;;;;0.10;0.10;;;;;;;;;;5048904;28;20404;-70
2023/03/09 02:54:24;;;;;;;0.10;0.10;;;;;;;;;;5049163;28;20086;-71
2023/03/09 02:56:50;;;;;;;0.10;0.10;;;;;;;;;;5049079;28;20025;-70
2023/03/09 02:59:15;;;;;;;0.20;0.20;;;;;;;;;;5048889;28;20037;-70
2023/03/09 03:01:41;;;;;;;1.60;1.50;;;;;;;;;;5033024;28;20036;-71
2023/03/09 03:04:06;;;;;;;0.20;0.20;;;;;;;;;;5049065;28;20029;-73
2023/03/09 03:06:34;;;;;;;0.77;0.73;;;;;;;;;;5048951;28;20419;-70
2023/03/09 03:08:59;;;;;;;0.20;0.20;;;;;;;;;;5031953;28;20120;-71
2023/03/09 03:11:24;;;;;;;1.38;1.10;;;;;;;;;;5048625;28;20028;-71
2023/03/09 03:13:51;;;;;;;0.68;0.68;;;;;;;;;;5048301;28;20542;-70
2023/03/09 03:16:17;;;;;;;0.50;0.50;;;;;;;;;;5015846;28;20033;-70
2023/03/09 03:18:42;;;;;;;3.72;1.05;;;;;;;;;;5048479;28;20037;-74
2023/03/09 03:21:08;;;;;;;0.98;0.95;;;;;;;;;;5048905;28;20384;-70
2023/03/09 03:23:38;;;;;;;;;;;;;;;;;;5033155;28;20029;-70
2023/03/09 03:26:07;;;;;;;1.20;1.10;;;;;;;;;;5049758;28;19908;-70
2023/03/09 03:28:34;;;;;;;1.17;1.15;;;;;;;;;;5049292;28;20037;-71
2023/03/09 03:31:04;;;;;;;0.95;0.95;;;;;;;;;;5048827;28;20017;-70
2023/03/09 03:33:29;;;;;;;3.40;0.82;;;;;;;;;;5047837;28;20089;-70
2023/03/09 03:35:56;;;;;;;0.52;0.50;;;;;;;;;;5049513;28;20033;-69
2023/03/09 03:38:22;;;;;;;0.40;0.40;;;;;;;;;;5048422;28;20032;-70
2023/03/09 03:40:50;;;;;;;0.10;0.10;;;;;;;;;;5048182;28;20460;-69
2023/03/09 03:43:15;;;;;;;0.85;0.77;;;;;;;;;;5049878;28;20037;-69
2023/03/09 03:45:45;;;;;;;0.10;0.10;;;;;;;;;;5047905;28;20033;-70
2023/03/09 03:48:10;;;;;;;0.10;0.10;;;;;;;;;;5048345;28;20129;-70
2023/03/09 03:50:36;;;;;;;0.10;0.10;;;;;;;;;;5048359;28;20055;-70
2023/03/09 03:53:02;;;;;;;0.30;0.30;;;;;;;;;;5049489;28;20376;-70
2023/03/09 03:55:29;;;;;;;0.10;0.10;;;;;;;;;;5052478;28;20037;-70
2023/03/09 03:57:55;;;;;;;0.20;0.20;;;;;;;;;;5048450;28;20118;-70
2023/03/09 04:00:22;;;;;;;0.10;0.10;;;;;;;;;;5052576;28;20060;-72
2023/03/09 04:02:50;;;;;;;0.20;0.20;;;;;;;;;;5048574;28;20092;-73
2023/03/09 04:05:20;;;;;;;0.10;0.10;;;;;;;;;;5048015;28;20040;-70
2023/03/09 04:07:47;;;;;;;0.10;0.10;;;;;;;;;;5031685;28;20045;-71
2023/03/09 04:10:13;;;;;;;0.10;0.10;;;;;;;;;;5048088;28;20124;-70
2023/03/09 04:12:42;;;;;;;0.20;0.20;;;;;;;;;;5032167;28;20021;-70
2023/03/09 04:15:10;;;;;;;0.20;0.20;;;;;;;;;;5047719;28;20029;-72
2023/03/09 04:17:36;;;;;;;0.10;0.10;;;;;;;;;;5047829;28;20039;-71
2023/03/09 04:20:04;;;;;;;0.13;0.13;;;;;;;;;;5031979;28;20032;-70
2023/03/09 04:22:30;;;;;;;0.50;0.50;;;;;;;;;;5032201;28;20029;-71
2023/03/09 04:24:56;;;;;;;0.17;0.17;;;;;;;;;;5047753;28;20116;-71
2023/03/09 04:27:21;;;;;;;0.80;0.55;;;;;;;;;;5047645;28;20052;-71
2023/03/09 04:29:52;;;;;;;0.47;0.47;;;;;;;;;;5048346;28;20021;-69
2023/03/09 04:32:21;;;;;;;0.53;0.37;;;;;;;;;;5048079;28;20075;-69
2023/03/09 04:34:49;;;;;;;1.30;0.32;;;;;;;;;;5047667;28;20271;-69
2023/03/09 04:37:16;;;;;;;0.20;0.20;;;;;;;;;;5050211;28;20496;-70
2023/03/09 04:39:41;;;;;;;0.10;0.10;;;;;;;;;;5051417;28;20123;-70
2023/03/09 04:42:08;;;;;;;0.10;0.10;;;;;;;;;;5051852;28;20127;-70
2023/03/09 04:44:34;;;;;;;0.10;0.10;;;;;;;;;;5051438;28;20472;-70
2023/03/09 04:47:00;;;;;;;0.10;0.10;;;;;;;;;;5051686;28;20032;-71
2023/03/09 04:49:26;;;;;;;0.10;0.10;;;;;;;;;;5051076;28;20385;-69
2023/03/09 04:51:52;;;;;;;0.20;0.20;;;;;;;;;;5034897;28;20124;-70
2023/03/09 04:54:17;;;;;;;0.10;0.10;;;;;;;;;;5052295;28;20064;-72
2023/03/09 04:56:43;;;;;;;0.43;0.30;;;;;;;;;;5051212;28;20029;-70
2023/03/09 04:59:15;;;;;;;3.03;2.83;;;;;;;;;;5051176;28;20166;-70
2023/03/09 05:01:42;;;;;;;0.10;0.10;;;;;;;;;;5052061;28;20032;-70
2023/03/09 05:04:11;;;;;;;0.10;0.10;;;;;;;;;;5051041;28;20037;-69
2023/03/09 05:06:42;;;;;;;0.10;0.10;;;;;;;;;;5051350;28;20481;-70
2023/03/09 05:09:08;;;;;;;0.10;0.10;;;;;;;;;;5034562;28;20025;-71
2023/03/09 05:11:33;;;;;;;0.10;0.10;;;;;;;;;;5052491;28;20032;-70
2023/03/09 05:14:02;;;;;;;0.35;0.30;;;;;;;;;;5052152;28;20257;-71
2023/03/09 05:16:30;;;;;;;0.28;0.28;;;;;;;;;;5070832;28;20021;-70
2023/03/09 05:18:56;;;;;;;0.10;0.10;;;;;;;;;;5070618;28;20119;-70
2023/03/09 05:21:26;;;;;;;1.23;0.88;;;;;;;;;;5070304;28;20499;-71
2023/03/09 05:23:54;;;;;;;0.10;0.10;;;;;;;;;;5054073;28;20117;-71
2023/03/09 05:26:19;;;;;;;0.85;0.85;;;;;;;;;;5071007;28;20052;-74
2023/03/09 05:28:48;;;;;;;0.10;0.10;;;;;;;;;;5069262;28;20033;-71
2023/03/09 05:31:14;;;;;;;0.10;0.10;;;;;;;;;;5059099;28;20036;-71
2023/03/09 05:33:43;;;;;;;0.70;0.52;;;;;;;;;;5070318;28;20136;-71
2023/03/09 05:36:27;;;;;;;0.10;0.10;;;;;;;;;;5059314;28;20583;-71
2023/03/09 05:38:56;;;;;;;0.35;0.32;;;;;;;;;;5051918;28;20490;-71
2023/03/09 05:41:22;;;;;;;0.50;0.50;;;;;;;;;;5050218;28;20415;-71
2023/03/09 05:43:53;;;;;;;0.20;0.20;;;;;;;;;;5052394;28;20379;-72
2023/03/09 05:46:19;;;;;;;0.20;0.20;;;;;;;;;;5056450;28;20116;-70
2023/03/09 05:48:46;;;;;;;0.30;0.30;;;;;;;;;;5068866;28;20044;-71
2023/03/09 05:51:11;;;;;;;0.40;0.40;;;;;;;;;;5064473;28;20047;-70
2023/03/09 05:53:37;;;;;;;0.45;0.45;;;;;;;;;;5038598;28;20033;-69
2023/03/09 05:56:06;;;;;;;0.10;0.10;;;;;;;;;;5049413;28;20430;-69
2023/03/09 05:58:33;;;;;;;0.10;0.10;;;;;;;;;;5043556;28;20021;-69
2023/03/09 06:01:00;;;;;;;0.52;0.52;;;;;;;;;;5043291;28;20028;-70
2023/03/09 06:03:27;;;;;;;0.10;0.10;;;;;;;;;;5060155;28;20032;-69
2023/03/09 06:06:04;;;;;;;0.47;0.32;;;;;;;;;;5059252;28;20383;-70
2023/03/09 06:08:33;;;;;;;0.10;0.10;;;;;;;;;;5053293;28;20131;-69
2023/03/09 06:11:02;;;;;;;0.52;0.52;;;;;;;;;;5069824;28;20578;-70
2023/03/09 06:13:29;;;;;;;0.30;0.30;;;;;;;;;;5052386;28;20027;-70
2023/03/09 06:15:57;;;;;;;0.10;0.10;;;;;;;;;;5069139;28;20017;-70
2023/03/09 06:18:23;;;;;;;0.10;0.10;;;;;;;;;;5068729;28;20491;-71
2023/03/09 06:20:48;;;;;;;0.20;0.20;;;;;;;;;;5060308;28;20028;-72
2023/03/09 06:23:14;;;;;;;0.10;0.10;;;;;;;;;;5050842;28;20029;-71
2023/03/09 06:25:40;;;;;;;0.30;0.30;;;;;;;;;;5049433;28;20029;-71
2023/03/09 06:28:08;;;;;;;0.30;0.30;;;;;;;;;;5049195;28;20047;-71
2023/03/09 06:30:37;;;;;;;0.10;0.10;;;;;;;;;;5049566;28;20028;-70
2023/03/09 06:33:03;;;;;;;0.10;0.10;;;;;;;;;;5048805;28;20090;-70
2023/03/09 06:35:33;;;;;;;0.10;0.10;;;;;;;;;;5049000;28;20028;-70
2023/03/09 06:38:01;;;;;;;0.13;0.13;;;;;;;;;;5050721;28;20485;-71
2023/03/09 06:40:27;;;;;;;0.10;0.10;;;;;;;;;;5049512;28;20414;-70
2023/03/09 06:42:53;;;;;;;1.55;1.23;;;;;;;;;;5049272;28;20370;-71
2023/03/09 06:45:21;;;;;;;0.10;0.10;;;;;;;;;;5048981;28;20028;-70
2023/03/09 06:47:47;;;;;;;0.10;0.10;;;;;;;;;;5032868;28;20036;-69
2023/03/09 06:50:12;;;;;;;0.10;0.10;;;;;;;;;;5032428;28;20357;-71
2023/03/09 06:52:41;;;;;;;0.10;0.10;;;;;;;;;;5049187;28;20412;-69
2023/03/09 06:55:07;;;;;;;0.10;0.10;;;;;;;;;;5048884;28;20313;-73
2023/03/09 06:57:32;;;;;;;0.10;0.10;;;;;;;;;;5049977;28;20025;-69
2023/03/09 06:59:58;;;;;;;0.10;0.10;;;;;;;;;;5050100;28;20180;-73
2023/03/09 07:02:23;;;;;;;0.10;0.10;;;;;;;;;;5048555;28;20029;-72
2023/03/09 07:04:51;;;;;;;0.10;0.10;;;;;;;;;;5048723;28;20025;-68
2023/03/09 07:07:18;;;;;;;0.17;0.17;;;;;;;;;;5052022;28;20032;-71
2023/03/09 07:09:44;;;;;;;0.10;0.10;;;;;;;;;;5040553;28;20059;-70
2023/03/09 07:12:09;;;;;;;0.10;0.10;;;;;;;;;;5049595;28;20057;-70
2023/03/09 07:14:34;;;;;;;0.10;0.10;;;;;;;;;;5049944;28;20028;-72
2023/03/09 07:17:00;;;;;;;0.10;0.10;;;;;;;;;;5049575;28;20032;-70
2023/03/09 07:19:25;;;;;;;0.10;0.10;;;;;;;;;;5049822;28;20036;-74
2023/03/09 07:21:53;;;;;;;0.10;0.10;;;;;;;;;;5049596;28;20399;-70
2023/03/09 07:24:18;;;;;;;0.10;0.10;;;;;;;;;;5049829;28;20029;-73
2023/03/09 07:26:45;;;;;;;0.10;0.10;;;;;;;;;;5049726;28;20024;-71
2023/03/09 07:29:11;;;;;;;0.30;0.30;;;;;;;;;;5049434;28;20376;-68
2023/03/09 07:31:36;;;;;;;0.10;0.10;;;;;;;;;;5052196;28;20028;-69
2023/03/09 07:34:02;;;;;;;0.10;0.10;;;;;;;;;;5059881;28;20044;-71
2023/03/09 07:36:27;;;;;;;0.25;0.20;;;;;;;;;;5061801;28;20349;-72
2023/03/09 07:38:53;;;;;;;0.10;0.10;;;;;;;;;;5064185;28;20112;-76
2023/03/09 07:41:18;;;;;;;0.10;0.10;;;;;;;;;;5068917;28;20032;-71
2023/03/09 07:43:44;;;;;;;0.10;0.10;;;;;;;;;;5068261;28;20040;-70
2023/03/09 07:46:17;;;;;;;0.10;0.10;;;;;;;;;;5052111;28;20127;-71
2023/03/09 07:48:44;;;;;;;0.10;0.10;;;;;;;;;;5064051;28;20634;-73
2023/03/09 07:51:10;;;;;;;0.17;0.17;;;;;;;;;;5047771;28;20436;-71
2023/03/09 07:53:37;;;;;;;1.02;0.95;;;;;;;;;;5051677;28;20520;-72
2023/03/09 07:56:03;;;;;;;0.25;0.22;;;;;;;;;;5064940;28;20028;-72
2023/03/09 07:58:29;;;;;;;0.55;0.55;;;;;;;;;;5068444;28;20041;-69
2023/03/09 08:00:56;;;;;;;0.65;0.65;;;;;;;;;;5064201;28;20029;-69
2023/03/09 08:03:21;;;;;;;3.28;1.10;;;;;;;;;;5051295;28;20021;-69
2023/03/09 08:05:47;;;;;;;0.25;0.25;;;;;;;;;;5057421;28;20131;-69
2023/03/09 08:08:12;;;;;;;0.30;0.30;;;;;;;;;;5068807;28;20103;-70
2023/03/09 08:10:39;;;;;;;2.67;0.52;;;;;;;;;;5045720;28;20032;-70
2023/03/09 08:13:05;;;;;;;3.92;0.47;;;;;;;;;;5050822;28;20453;-69
2023/03/09 08:15:30;;;;;;;0.20;0.20;;;;;;;;;;5052677;28;20117;-70
2023/03/09 08:17:56;;;;;;;1.67;0.22;;;;;;;;;;5052459;28;20028;-69
2023/03/09 08:20:21;;;;;;;0.15;0.15;;;;;;;;;;5052808;28;20051;-70
2023/03/09 08:22:47;;;;;;;0.35;0.32;;;;;;;;;;5055453;28;20480;-70
2023/03/09 08:25:14;;;;;;;0.10;0.10;;;;;;;;;;5040287;28;20044;-69
2023/03/09 08:27:41;;;;;;;0.20;0.20;;;;;;;;;;5069107;28;20040;-69
2023/03/09 08:30:07;;;;;;;0.20;0.20;;;;;;;;;;5071647;28;20044;-69
2023/03/09 08:32:32;;;;;;;0.10;0.10;;;;;;;;;;5072327;28;20158;-69
2023/03/09 08:34:58;;;;;;;0.68;0.47;;;;;;;;;;5072490;28;20044;-68
2023/03/09 08:37:24;;;;;;;0.10;0.10;;;;;;;;;;5070736;28;20035;-68
2023/03/09 08:39:52;;;;;;;0.32;0.32;;;;;;;;;;5072039;28;20017;-68
2023/03/09 08:42:18;;;;;;;0.10;0.10;;;;;;;;;;5071720;28;20021;-68
2023/03/09 08:44:44;;;;;;;0.13;0.13;;;;;;;;;;5063336;28;20104;-68
2023/03/09 08:47:09;;;;;;;0.95;0.70;;;;;;;;;;5060584;28;20037;-69
2023/03/09 08:49:37;;;;;;;2.40;2.22;;;;;;;;;;5060903;28;20099;-68
2023/03/09 08:52:03;;;;;;;0.10;0.10;;;;;;;;;;5061630;28;20061;-68
2023/03/09 08:54:28;;;;;;;0.60;0.60;;;;;;;;;;5062975;28;20049;-70
2023/03/09 08:56:53;;;;;;;0.60;0.60;;;;;;;;;;5060127;28;20456;-69
2023/03/09 08:59:19;;;;;;;2.35;1.33;;;;;;;;;;5060557;28;20058;-70
2023/03/09 09:01:44;;;;;;;4.85;1.20;;;;;;;;;;5063399;28;20051;-69
2023/03/09 09:04:10;;;;;;;5.18;1.48;;;;;;;;;;5058955;28;20115;-69
2023/03/09 09:06:36;;;;;;;10.48;0.73;;;;;;;;;;5062103;28;20024;-68
2023/03/09 09:09:02;;;;;;;1.98;1.85;;;;;;;;;;5061155;28;20045;-68
2023/03/09 09:11:27;;;;;;;0.10;0.10;;;;;;;;;;5062761;28;20035;-68
2023/03/09 09:13:54;;;;;;;5.25;2.65;;;;;;;;;;5061263;28;20472;-68
2023/03/09 09:16:20;;;;;;;2.08;0.63;;;;;;;;;;5049465;28;20491;-71
2023/03/09 09:18:46;;;;;;;0.82;0.50;;;;;;;;;;5060519;28;20045;-72
2023/03/09 09:21:13;;;;;;;2.10;1.23;;;;;;;;;;5061748;28;20025;-77
2023/03/09 09:23:39;;;;;;;8.60;1.85;;;;;;;;;;5060316;28;20021;-70
2023/03/09 09:26:05;;;;;;;0.40;0.32;;;;;;;;;;5058842;28;20231;-73
2023/03/09 09:28:31;;;;;;;0.17;0.17;;;;;;;;;;5043563;28;20035;-69
2023/03/09 09:30:58;;;;;;;2.80;0.45;;;;;;;;;;5060595;28;20088;-69
2023/03/09 09:33:24;;;;;;;2.00;1.65;;;;;;;;;;5060334;28;20045;-69
2023/03/09 09:35:59;;;;;;;0.10;0.10;;;;;;;;;;5060650;28;20116;-70
2023/03/09 09:38:25;;;;;;;0.17;0.17;;;;;;;;;;5060186;28;20033;-70
2023/03/09 09:40:52;;;;;;;0.90;0.40;;;;;;;;;;5061973;28;20024;-70
2023/03/09 09:43:18;;;;;;;0.63;0.32;;;;;;;;;;5052504;28;20029;-70
2023/03/09 09:45:44;;;;;;;2.17;0.60;;;;;;;;;;5065113;28;20061;-69
2023/03/09 09:48:17;;;;;;;0.17;0.17;;;;;;;;;;5041984;28;20040;-73
2023/03/09 09:51:00;;;;;;;0.20;0.20;;;;;;;;;;5058068;28;20423;-73
2023/03/09 09:53:26;;;;;;;0.20;0.20;;;;;;;;;;5057611;28;20513;-74
2023/03/09 09:55:51;;;;;;;0.10;0.10;;;;;;;;;;5044161;28;20104;-73
2023/03/09 09:58:32;;;;;;;0.65;0.20;;;;;;;;;;5058563;28;20033;-72
2023/03/09 10:00:59;;;;;;;4.55;0.75;;;;;;;;;;5057830;28;20376;-73
2023/03/09 10:03:37;;;;;;;0.38;0.38;;;;;;;;;;5050060;28;20040;-73
2023/03/09 10:06:22;;;;;;;3.30;0.68;;;;;;;;;;5056130;28;20383;-73
2023/03/09 10:08:55;;;;;;;1.17;0.75;;;;;;;;;;5059743;28;20545;-73
2023/03/09 10:11:23;;;;;;;0.10;0.10;;;;;;;;;;5060701;28;20033;-73
2023/03/09 10:13:51;;;;;;;0.80;0.63;;;;;;;;;;5059530;28;20032;-73
2023/03/09 10:16:26;;;;;;;0.93;0.43;;;;;;;;;;5060098;28;20021;-73
2023/03/09 10:18:57;;;;;;;0.85;0.68;;;;;;;;;;5066658;28;20033;-73
2023/03/09 10:21:34;;;;;;;1.23;0.73;;;;;;;;;;5070080;28;20016;-72
2023/03/09 10:24:01;;;;;;;6.13;2.50;;;;;;;;;;5068940;28;20480;-74
2023/03/09 10:26:32;;;;;;;1.95;0.30;;;;;;;;;;5069092;28;20108;-74
2023/03/09 10:29:01;;;;;;;3.70;1.15;;;;;;;;;;5042036;28;20110;-73
2023/03/09 10:31:31;;;;;;;0.30;0.30;;;;;;;;;;5031938;28;20032;-75
2023/03/09 10:34:04;;;;;;;1.27;0.63;;;;;;;;;;5050683;28;20045;-73
2023/03/09 10:36:31;;;;;;;1.27;0.63;;;;;;;;;;5055248;28;20115;-74
2023/03/09 10:39:01;;;;;;;0.50;0.50;;;;;;;;;;5051278;28;20032;-74
2023/03/09 10:41:27;;;;;;;0.30;0.30;;;;;;;;;;5032045;28;20104;-75
2023/03/09 10:43:55;;;;;;;2.00;1.85;;;;;;;;;;5029926;28;20131;-74
2023/03/09 10:46:25;;;;;;;1.30;0.38;;;;;;;;;;5028315;28;20021;-74
2023/03/09 10:49:08;;;;;;;1.20;1.05;;;;;;;;;;5027707;28;20099;-74
2023/03/09 10:51:38;;;;;;;0.30;0.30;;;;;;;;;;5045678;28;20086;-75
2023/03/09 10:54:19;;;;;;;0.10;0.10;;;;;;;;;;5050241;28;20079;-74
2023/03/09 10:56:45;;;;;;;1.98;1.58;;;;;;;;;;5067196;28;20029;-74
2023/03/09 10:59:18;;;;;;;0.25;0.25;;;;;;;;;;5067211;28;20373;-74
2023/03/09 11:01:45;;;;;;;1.70;0.45;;;;;;;;;;5065870;28;20051;-75
2023/03/09 11:04:23;;;;;;;1.75;1.55;;;;;;;;;;5065456;28;20019;-74
2023/03/09 11:06:59;;;;;;;0.63;0.43;;;;;;;;;;5063627;28;20599;-75
2023/03/09 11:09:35;;;;;;;3.58;0.47;;;;;;;;;;5064536;28;20078;-74
2023/03/09 11:12:20;;;;;;;0.22;0.22;;;;;;;;;;5045348;28;20024;-74
2023/03/09 11:14:53;;;;;;;1.08;1.00;;;;;;;;;;5062253;28;20036;-74
2023/03/09 11:17:37;;;;;;;0.10;0.10;;;;;;;;;;5063148;28;20036;-74
2023/03/09 11:20:12;;;;;;;2.92;0.68;;;;;;;;;;5063254;28;20036;-75
2023/03/09 11:22:45;;;;;;;3.85;0.73;;;;;;;;;;5066867;28;20375;-73
2023/03/09 11:25:17;;;;;;;3.67;0.77;;;;;;;;;;5066603;28;20119;-74
2023/03/09 11:27:46;;;;;;;0.75;0.38;;;;;;;;;;5067632;28;20117;-74
2023/03/09 11:30:11;;;;;;;3.75;0.95;;;;;;;;;;5066132;28;20029;-74
2023/03/09 11:32:37;;;;;;;2.78;0.40;;;;;;;;;;5066865;28;20123;-74
2023/03/09 11:35:02;;;;;;;0.65;0.40;;;;;;;;;;5067253;28;20468;-74
2023/03/09 11:37:38;;;;;;;3.47;0.60;;;;;;;;;;5066452;28;20029;-74
2023/03/09 11:40:10;;;;;;;1.98;0.82;;;;;;;;;;5065388;28;20028;-74
2023/03/09 11:42:35;;;;;;;1.15;1.08;;;;;;;;;;5065365;28;20522;-74
2023/03/09 11:45:02;;;;;;;36.60;7.68;;;;;;;;;;5048813;28;20016;-75
2023/03/09 11:47:33;;;;;;;2.17;0.85;;;;;;;;;;5064803;28;20127;-74
2023/03/09 11:50:01;;;;;;;0.40;0.30;;;;;;;;;;5049811;28;20023;-75
2023/03/09 11:52:30;;;;;;;3.38;0.52;;;;;;;;;;5067141;28;20866;-75
2023/03/09 11:54:58;;;;;;;8.85;1.48;;;;;;;;;;5067855;28;20126;-74
2023/03/09 11:57:25;;;;;;;0.10;0.10;;;;;;;;;;5067789;28;20024;-74
2023/03/09 12:00:08;;;;;;;0.85;0.35;;;;;;;;;;5069187;28;20028;-74
2023/03/09 12:02:45;;;;;;;3.72;1.95;;;;;;;;;;5051044;28;20033;-74
2023/03/09 12:05:11;;;;;;;0.95;0.30;;;;;;;;;;5068795;28;20487;-74
2023/03/09 12:07:41;;;;;;;0.30;0.30;;;;;;;;;;5067505;28;20472;-74
2023/03/09 12:10:07;;;;;;;1.42;1.30;;;;;;;;;;5067427;28;20041;-74
2023/03/09 12:12:44;;;;;;;0.82;0.77;;;;;;;;;;5069157;28;20036;-75
2023/03/09 12:15:23;;;;;;;3.35;1.10;;;;;;;;;;5067343;28;20025;-74
2023/03/09 12:18:12;;;;;;;0.30;0.28;;;;;;;;;;5069288;28;20024;-75
2023/03/09 12:20:39;;;;;;;4.03;1.40;;;;;;;;;;5067980;28;20468;-75
2023/03/09 12:23:05;;;;;;;0.10;0.10;;;;;;;;;;5069136;28;20032;-75
2023/03/09 12:25:30;;;;;;;2.55;0.30;;;;;;;;;;5067059;28;20017;-75
2023/03/09 12:27:59;;;;;;;0.20;0.20;;;;;;;;;;5068543;28;20082;-75
2023/03/09 12:30:31;;;;;;;1.45;0.50;;;;;;;;;;5068330;28;20028;-74
2023/03/09 12:33:00;;;;;;;0.20;0.20;;;;;;;;;;5068322;28;20079;-75
2023/03/09 12:35:25;;;;;;;0.20;0.20;;;;;;;;;;5067981;28;20523;-75
2023/03/09 12:37:55;;;;;;;0.20;0.20;;;;;;;;;;5068394;28;20024;-75
2023/03/09 12:40:32;;;;;;;0.30;0.30;;;;;;;;;;5067982;28;20077;-75
2023/03/09 12:43:18;;;;;;;1.30;1.20;;;;;;;;;;5068719;28;20376;-76
2023/03/09 12:45:45;;;;;;;1.23;0.40;;;;;;;;;;5068411;28;20037;-75
2023/03/09 12:48:11;;;;;;;2.30;0.50;;;;;;;;;;5066143;28;20049;-75
2023/03/09 12:50:42;;;;;;;0.20;0.20;;;;;;;;;;5065932;28;20032;-75
2023/03/09 12:53:12;;;;;;;11.73;5.30;;;;;;;;;;5067212;28;20029;-75
2023/03/09 12:55:37;;;;;;;0.20;0.20;;;;;;;;;;5067965;28;20039;-75
2023/03/09 12:58:21;;;;;;;0.20;0.20;;;;;;;;;;5063554;28;20029;-74
2023/03/09 13:01:00;;;;;;;0.20;0.20;;;;;;;;;;5051730;28;20029;-74
2023/03/09 13:03:31;;;;;;;0.20;0.20;;;;;;;;;;5070489;28;20031;-76
2023/03/09 13:06:21;;;;;;;0.60;0.60;;;;;;;;;;5054245;28;20475;-75
2023/03/09 13:09:13;;;;;;;0.55;0.40;;;;;;;;;;5070616;28;20066;-75
2023/03/09 13:11:41;;;;;;;2.20;1.48;;;;;;;;;;5068992;28;20119;-75
2023/03/09 13:14:24;;;;;;;0.20;0.20;;;;;;;;;;5071982;28;20033;-76
2023/03/09 13:16:54;;;;;;;0.20;0.20;;;;;;;;;;5070146;28;20025;-76
2023/03/09 13:19:28;;;;;;;0.28;0.28;;;;;;;;;;5071629;28;20052;-75
2023/03/09 13:21:57;;;;;;;0.20;0.20;;;;;;;;;;5070488;28;20029;-75
2023/03/09 13:24:24;;;;;;;0.20;0.20;;;;;;;;;;5071460;28;20028;-75
2023/03/09 13:26:51;;;;;;;0.13;0.13;;;;;;;;;;5070983;28;20880;-74
2023/03/09 13:29:18;;;;;;;0.73;0.73;;;;;;;;;;5071406;28;20032;-75
2023/03/09 13:31:47;;;;;;;1.08;0.75;;;;;;;;;;5071434;28;20051;-76
2023/03/09 13:34:21;;;;;;;0.38;0.38;;;;;;;;;;5070893;28;20044;-75
2023/03/09 13:36:48;;;;;;;0.20;0.20;;;;;;;;;;5068946;28;20526;-74
2023/03/09 13:39:16;;;;;;;0.17;0.17;;;;;;;;;;5068590;28;20482;-76
2023/03/09 13:41:42;;;;;;;6.57;1.73;;;;;;;;;;5069356;28;20024;-75
2023/03/09 13:44:15;;;;;;;0.20;0.20;;;;;;;;;;5069532;28;20024;-75
2023/03/09 13:46:43;;;;;;;1.70;1.08;;;;;;;;;;5067454;28;20028;-75
2023/03/09 13:49:35;;;;;;;0.20;0.20;;;;;;;;;;5068854;28;20111;-74
2023/03/09 13:52:01;;;;;;;3.42;1.00;;;;;;;;;;5068325;28;20091;-76
2023/03/09 13:54:32;;;;;;;0.20;0.20;;;;;;;;;;5068707;28;20025;-75
2023/03/09 13:56:57;;;;;;;1.65;1.55;;;;;;;;;;5067694;28;20036;-77
2023/03/09 13:59:23;;;;;;;1.55;1.00;;;;;;;;;;5068639;28;20013;-75
2023/03/09 14:01:48;;;;;;;2.88;2.10;;;;;;;;;;5064585;28;20052;-76
2023/03/09 14:04:15;;;;;;;0.50;0.50;;;;;;;;;;5067101;28;20085;-76
2023/03/09 14:06:40;;;;;;;0.57;0.52;;;;;;;;;;5068532;28;20024;-75
2023/03/09 14:09:20;;;;;;;0.20;0.20;;;;;;;;;;5067696;28;20675;-76
2023/03/09 14:11:45;;;;;;;5.57;0.75;;;;;;;;;;5063979;28;20033;-76
2023/03/09 14:14:19;;;;;;;0.40;0.40;;;;;;;;;;5047127;28;20017;-75
2023/03/09 14:16:45;;;;;;;2.25;0.50;;;;;;;;;;5055917;28;20656;-75
2023/03/09 14:19:21;;;;;;;0.52;0.43;;;;;;;;;;5058382;28;20041;-75
2023/03/09 14:21:50;;;;;;;0.25;0.25;;;;;;;;;;5057084;28;20331;-76
2023/03/09 14:24:23;;;;;;;1.75;0.70;;;;;;;;;;5053767;28;20112;-76
2023/03/09 14:26:48;;;;;;;0.20;0.20;;;;;;;;;;5053671;28;20021;-76
2023/03/09 14:29:14;;;;;;;2.08;0.68;;;;;;;;;;5048664;28;20044;-75
2023/03/09 14:31:39;;;;;;;3.85;1.33;;;;;;;;;;5048499;28;20433;-75
2023/03/09 14:34:05;;;;;;;0.10;0.10;;;;;;;;;;5048535;28;20063;-75
2023/03/09 14:36:38;;;;;;;6.55;1.38;;;;;;;;;;5048975;28;20081;-75
2023/03/09 14:39:10;;;;;;;3.28;2.40;;;;;;;;;;5033168;28;20647;-75
2023/03/09 14:41:36;;;;;;;6.93;0.43;;;;;;;;;;5053029;28;20242;-76
2023/03/09 14:44:01;;;;;;;0.20;0.20;;;;;;;;;;5057595;28;20032;-76
2023/03/09 14:46:30;;;;;;;0.57;0.30;;;;;;;;;;5047497;28;20100;-75
2023/03/09 14:48:56;;;;;;;1.17;1.17;;;;;;;;;;5054846;28;20143;-78
2023/03/09 14:51:23;;;;;;;2.65;0.98;;;;;;;;;;5042900;28;20064;-76